Time;durP1;ratioP1;P1;durP2;ratioP2;P2;SDS_P1;SDS_P2;PMS_P1;PMS_P2;Temp;Humidity;BMP_temperature;BMP_pressure;BME280_temperature;BME280_humidity;BME280_pressure;Samples;Min_cycle;Max_cycle;Signal;HPM_P1;HPM_P2
2021/04/02 00:05:04;;;;;;;14.93;7.90;;;;;;;10.86;65.09;98463.06;237971;1200;23101;-68
2021/04/02 00:10:13;;;;;;;12.20;6.87;;;;;;;10.46;67.29;98468.06;238293;1202;23207;-71
2021/04/02 00:15:21;;;;;;;14.83;8.67;;;;;;;10.08;68.65;98450.19;239536;1199;23253;-72
2021/04/02 00:20:27;;;;;;;14.13;8.57;;;;;;;9.81;69.40;98453.58;239828;1199;23157;-72
2021/04/02 00:25:29;;;;;;;16.20;9.37;;;;;;;9.63;70.25;98435.67;239585;1200;23117;-73
2021/04/02 00:30:48;;;;;;;19.80;9.40;;;;;;;9.49;71.08;98446.29;239590;1199;23113;-73
2021/04/02 00:35:51;;;;;;;18.40;11.20;;;;;;;9.36;72.06;98427.20;239759;1198;23138;-74
2021/04/02 00:41:20;;;;;;;20.90;11.33;;;;;;;9.25;72.44;98423.08;239741;1200;23448;-74
2021/04/02 00:46:23;;;;;;;15.43;9.63;;;;;;;9.16;72.49;98411.44;239934;1200;23196;-74
2021/04/02 00:51:28;;;;;;;19.90;10.53;;;;;;;9.13;73.58;98404.00;239925;1200;23195;-72
2021/04/02 00:56:31;;;;;;;22.83;12.73;;;;;;;9.10;73.82;98407.25;239834;1200;23089;-73
2021/04/02 01:01:34;;;;;;;18.03;10.37;;;;;;;9.07;74.19;98412.07;239719;1198;23126;-73
2021/04/02 01:06:36;;;;;;;20.80;10.80;;;;;;;9.06;74.52;98415.03;239506;1198;23169;-73
2021/04/02 01:11:40;;;;;;;16.57;10.80;;;;;;;9.07;75.07;98409.40;239454;1198;23112;-73
2021/04/02 01:16:46;;;;;;;20.20;12.50;;;;;;;9.06;75.43;98410.47;239592;1200;23075;-72
2021/04/02 01:21:59;;;;;;;20.17;10.77;;;;;;;9.05;75.67;98405.42;239390;1197;23101;-73
2021/04/02 01:27:08;;;;;;;22.93;12.27;;;;;;;9.05;75.53;98402.75;239510;1200;23118;-73
2021/04/02 01:32:17;;;;;;;22.75;12.45;;;;;;;9.06;76.13;98409.69;239647;1199;23119;-72
2021/04/02 01:37:30;;;;;;;19.33;11.93;;;;;;;9.07;76.80;98396.04;239740;1198;24895;-73
2021/04/02 01:42:35;;;;;;;21.53;12.47;;;;;;;9.10;76.94;98401.91;239712;1200;23170;-73
2021/04/02 01:47:39;;;;;;;23.93;14.23;;;;;;;9.15;77.45;98402.63;239689;1199;23832;-73
2021/04/02 01:52:45;;;;;;;26.00;16.70;;;;;;;9.16;78.11;98409.55;239662;1199;23132;-72
2021/04/02 01:57:50;;;;;;;22.65;14.15;;;;;;;9.18;77.74;98402.05;239701;1199;23098;-72
2021/04/02 02:02:58;;;;;;;28.30;16.95;;;;;;;9.21;78.27;98406.03;239477;1199;23201;-73
2021/04/02 02:08:04;;;;;;;27.27;16.73;;;;;;;9.23;78.16;98412.69;239830;1200;23074;-73
2021/04/02 02:13:09;;;;;;;28.63;16.27;;;;;;;9.24;78.67;98414.25;239554;1200;23231;-73
2021/04/02 02:18:24;;;;;;;24.80;16.23;;;;;;;9.24;78.81;98422.27;239544;1199;23134;-73
2021/04/02 02:23:28;;;;;;;23.65;15.55;;;;;;;9.24;78.86;98410.80;239508;1200;23812;-72
2021/04/02 02:28:31;;;;;;;26.80;16.60;;;;;;;9.24;78.92;98418.81;239873;1200;23109;-73
2021/04/02 02:33:35;;;;;;;28.90;17.95;;;;;;;9.17;78.89;98405.80;239634;1200;23102;-72
2021/04/02 02:38:44;;;;;;;29.57;18.10;;;;;;;9.11;79.14;98427.52;239639;1200;23119;-73
2021/04/02 02:43:48;;;;;;;29.97;19.97;;;;;;;9.02;78.47;98435.39;239569;1199;23111;-73
2021/04/02 02:48:56;;;;;;;33.23;20.60;;;;;;;8.99;79.18;98438.64;239677;1199;23210;-73
2021/04/02 02:54:01;;;;;;;31.60;20.95;;;;;;;8.97;78.88;98438.11;239596;1200;23112;-73
2021/04/02 02:59:10;;;;;;;33.37;20.83;;;;;;;8.95;79.18;98443.75;239581;1197;26903;-71
2021/04/02 03:04:16;;;;;;;32.53;19.47;;;;;;;8.95;78.75;98449.09;239613;1199;26061;-72
2021/04/02 03:09:19;;;;;;;29.07;17.77;;;;;;;8.95;78.87;98448.30;239822;1197;26377;-74
2021/04/02 03:14:24;;;;;;;24.17;15.00;;;;;;;8.86;78.29;98461.50;239659;1198;23207;-72
2021/04/02 03:19:31;;;;;;;26.40;16.67;;;;;;;8.79;78.54;98466.39;239991;1200;23152;-73
2021/04/02 03:24:41;;;;;;;22.93;14.83;;;;;;;8.70;78.99;98472.35;239714;1200;23118;-72
2021/04/02 03:29:46;;;;;;;24.00;13.77;;;;;;;8.60;78.38;98469.77;239486;1202;23128;-73
2021/04/02 03:34:54;;;;;;;20.37;13.83;;;;;;;8.51;78.86;98471.48;239487;1199;23114;-71
2021/04/02 03:39:59;;;;;;;19.80;11.95;;;;;;;8.45;78.71;98484.08;239865;1199;24732;-72
2021/04/02 03:45:07;;;;;;;17.30;12.33;;;;;;;8.37;78.13;98477.42;239550;1199;23109;-73
2021/04/02 03:50:14;;;;;;;17.73;12.07;;;;;;;8.32;78.40;98487.35;239700;1200;23118;-72
2021/04/02 03:55:19;;;;;;;17.90;11.65;;;;;;;8.24;78.57;98496.77;239616;1198;23133;-72
2021/04/02 04:00:33;;;;;;;17.07;12.50;;;;;;;8.15;78.90;98507.22;239633;1198;23146;-72
2021/04/02 04:05:41;;;;;;;16.40;11.63;;;;;;;8.05;78.89;98516.10;239767;1203;23264;-73
2021/04/02 04:10:49;;;;;;;13.40;9.80;;;;;;;7.93;78.70;98517.52;239728;1197;23484;-73
2021/04/02 04:15:54;;;;;;;12.70;8.85;;;;;;;7.81;78.75;98516.00;239506;1202;23109;-72
2021/04/02 04:20:59;;;;;;;10.20;7.70;;;;;;;7.71;78.38;98532.85;239853;1198;26034;-73
2021/04/02 04:26:22;;;;;;;10.93;8.07;;;;;;;7.61;78.75;98526.77;239469;1199;23118;-73
2021/04/02 04:31:26;;;;;;;9.53;7.33;;;;;;;7.53;78.30;98541.48;239726;1199;23410;-73
2021/04/02 04:36:30;;;;;;;10.70;8.40;;;;;;;7.48;78.78;98549.50;239764;1200;23549;-74
2021/04/02 04:41:34;;;;;;;10.00;7.40;;;;;;;7.44;78.24;98553.77;239651;1199;23109;-73
2021/04/02 04:46:37;;;;;;;10.03;7.80;;;;;;;7.38;78.48;98560.20;239661;1199;23109;-73
2021/04/02 04:51:41;;;;;;;8.87;6.93;;;;;;;7.31;78.87;98565.81;239549;1200;23112;-72
2021/04/02 04:56:51;;;;;;;9.55;7.25;;;;;;;7.25;78.56;98572.25;239660;1200;26236;-73
2021/04/02 05:01:55;;;;;;;10.30;7.70;;;;;;;7.18;78.74;98578.64;239657;1199;23152;-72
2021/04/02 05:07:01;;;;;;;8.83;6.80;;;;;;;7.14;78.97;98582.91;239781;1200;23104;-71
2021/04/02 05:12:07;;;;;;;8.87;6.53;;;;;;;7.12;78.97;98598.38;239703;1199;23159;-73
2021/04/02 05:17:10;;;;;;;8.50;6.70;;;;;;;7.08;79.07;98599.98;239681;1200;25738;-72
2021/04/02 05:22:13;;;;;;;7.60;6.30;;;;;;;6.99;78.23;98601.58;239395;1200;23110;-72
2021/04/02 05:27:15;;;;;;;8.80;7.00;;;;;;;6.96;78.86;98607.45;239470;1199;23134;-72
2021/04/02 05:32:18;;;;;;;10.37;7.70;;;;;;;6.95;78.63;98611.99;239590;1198;23138;-72
2021/04/02 05:37:20;;;;;;;9.40;7.63;;;;;;;6.79;78.07;98619.17;240057;1199;23214;-72
2021/04/02 05:42:25;;;;;;;8.83;7.13;;;;;;;6.60;78.12;98636.74;239918;1199;23160;-71
2021/04/02 05:47:29;;;;;;;9.20;7.25;;;;;;;6.29;78.70;98628.72;239972;1199;23110;-72
2021/04/02 05:52:33;;;;;;;8.70;6.63;;;;;;;6.10;78.85;98633.72;241290;1198;26229;-72
2021/04/02 05:57:36;;;;;;;8.10;6.17;;;;;;;5.99;78.52;98632.92;239897;1199;23073;-72
2021/04/02 06:02:40;;;;;;;7.67;6.70;;;;;;;5.94;78.86;98628.33;239990;1200;23102;-72
2021/04/02 06:07:44;;;;;;;6.80;6.10;;;;;;;5.99;78.66;98632.92;240021;1200;23106;-72
2021/04/02 06:12:46;;;;;;;8.33;6.53;;;;;;;5.97;78.51;98633.18;240727;1200;23199;-72
2021/04/02 06:18:06;;;;;;;9.20;7.25;;;;;;;6.03;78.80;98635.83;240385;1198;23112;-72
2021/04/02 06:23:22;;;;;;;15.83;11.27;;;;;;;6.04;78.37;98648.08;240217;1197;23114;-72
2021/04/02 06:28:29;;;;;;;21.63;14.90;;;;;;;6.03;78.09;98652.61;240186;1198;26299;-72
2021/04/02 06:33:36;;;;;;;19.23;13.07;;;;;;;5.91;77.73;98673.27;240366;1200;23132;-70
2021/04/02 06:38:50;;;;;;;19.83;12.77;;;;;;;5.81;77.55;98664.18;240105;1199;23101;-71
2021/04/02 06:43:59;;;;;;;14.80;10.70;;;;;;;5.77;77.76;98676.39;239781;1200;23110;-70
2021/04/02 06:49:14;;;;;;;12.10;8.98;;;;;;;5.66;77.69;98678.19;239983;1199;23132;-71
2021/04/02 06:54:19;;;;;;;11.23;8.67;;;;;;;5.65;77.55;98676.61;240271;1199;23128;-72
2021/04/02 06:59:25;;;;;;;12.67;8.90;;;;;;;5.67;77.34;98684.33;239992;1199;23117;-72
2021/04/02 07:04:30;;;;;;;10.60;8.20;;;;;;;5.74;77.20;98690.20;240059;1199;23114;-71
2021/04/02 07:09:40;;;;;;;11.53;8.37;;;;;;;5.79;77.57;98687.58;239821;1197;27361;-71
2021/04/02 07:14:44;;;;;;;10.80;6.90;;;;;;;5.86;76.90;98687.32;239954;1199;23108;-71
2021/04/02 07:19:48;;;;;;;11.15;7.90;;;;;;;5.83;76.43;98691.32;240036;1199;23120;-71
2021/04/02 07:24:51;;;;;;;12.70;9.40;;;;;;;5.83;76.87;98709.11;240126;1199;23164;-71
2021/04/02 07:29:55;;;;;;;13.37;9.03;;;;;;;5.75;76.40;98721.05;239782;1199;23096;-71
2021/04/02 07:34:59;;;;;;;14.57;10.37;;;;;;;5.64;76.34;98732.69;240055;1199;26112;-72
2021/04/02 07:40:10;;;;;;;12.50;8.90;;;;;;;5.62;76.78;98743.57;240391;1200;23237;-71
2021/04/02 07:45:12;;;;;;;10.05;7.45;;;;;;;5.58;76.71;98739.82;239970;1199;23145;-72
2021/04/02 07:50:16;;;;;;;9.23;6.23;;;;;;;5.57;76.85;98754.16;239910;1200;23239;-71
2021/04/02 07:55:19;;;;;;;7.27;6.17;;;;;;;5.56;76.54;98752.55;240083;1200;23101;-71
2021/04/02 08:00:27;;;;;;;9.33;6.83;;;;;;;5.46;76.32;98753.28;239796;1199;23217;-72
2021/04/02 08:05:30;;;;;;;7.10;5.60;;;;;;;5.40;76.29;98754.31;239985;1200;23237;-71
2021/04/02 08:10:34;;;;;;;8.03;5.93;;;;;;;5.42;76.58;98768.13;239886;1199;23544;-71
2021/04/02 08:15:36;;;;;;;8.57;6.07;;;;;;;5.47;76.29;98762.86;239892;1199;23126;-71
2021/04/02 08:20:39;;;;;;;9.13;5.70;;;;;;;5.57;76.31;98762.13;239800;1199;23106;-72
2021/04/02 08:25:42;;;;;;;7.77;6.63;;;;;;;5.69;75.72;98763.80;239921;1199;23177;-71
2021/04/02 08:30:45;;;;;;;6.77;5.73;;;;;;;5.81;75.46;98775.05;239926;1199;23192;-72
2021/04/02 08:35:49;;;;;;;6.80;5.80;;;;;;;5.89;74.70;98787.86;239799;1200;23111;-71
2021/04/02 08:40:51;;;;;;;7.20;6.10;;;;;;;5.96;74.72;98790.27;239843;1199;23105;-71
2021/04/02 08:45:54;;;;;;;12.13;8.43;;;;;;;6.08;74.40;98784.79;239845;1199;23109;-72
2021/04/02 08:50:56;;;;;;;12.60;8.50;;;;;;;6.22;74.13;98785.13;239963;1200;23099;-72
2021/04/02 08:55:58;;;;;;;10.13;8.20;;;;;;;6.42;73.36;98792.38;239988;1199;23103;-72
2021/04/02 09:01:03;;;;;;;9.57;7.17;;;;;;;6.58;72.79;98783.40;239713;1198;23176;-73
2021/04/02 09:06:06;;;;;;;9.50;6.75;;;;;;;6.82;72.44;98791.70;239827;1200;23102;-71
2021/04/02 09:11:11;;;;;;;10.30;8.00;;;;;;;7.07;71.34;98798.16;239878;1199;23131;-72
2021/04/02 09:16:19;;;;;;;9.65;6.80;;;;;;;7.31;71.14;98798.44;240379;1199;23436;-73
2021/04/02 09:21:24;;;;;;;8.65;7.30;;;;;;;7.51;70.36;98794.99;239888;1199;23109;-71
2021/04/02 09:26:28;;;;;;;7.15;6.45;;;;;;;7.73;70.51;98793.11;240285;1199;23932;-72
2021/04/02 09:31:37;;;;;;;8.40;7.30;;;;;;;7.83;69.57;98790.41;240190;1198;23128;-72
2021/04/02 09:36:42;;;;;;;7.95;6.65;;;;;;;8.09;68.62;98788.48;240196;1199;23173;-74
2021/04/02 09:41:51;;;;;;;7.50;6.65;;;;;;;8.46;68.83;98784.64;241702;1198;28945;-71
2021/04/02 09:47:05;;;;;;;8.75;7.30;;;;;;;8.64;67.34;98777.88;240656;1200;23246;-72
2021/04/02 09:52:09;;;;;;;9.65;7.15;;;;;;;8.61;65.65;98782.98;240611;1196;23106;-72
2021/04/02 09:57:12;;;;;;;8.67;6.83;;;;;;;8.57;65.01;98785.39;239934;1196;23172;-72
2021/04/02 10:02:15;;;;;;;9.55;7.85;;;;;;;8.49;65.05;98791.30;241175;1196;23122;-72
2021/04/02 10:07:17;;;;;;;8.83;7.27;;;;;;;8.92;65.58;98780.93;240074;1196;23109;-71
2021/04/02 10:12:20;;;;;;;11.15;8.55;;;;;;;8.99;63.81;98789.42;240270;1196;23178;-71
2021/04/02 10:17:26;;;;;;;10.10;8.93;;;;;;;8.90;63.68;98769.73;240484;1199;23150;-72
2021/04/02 10:22:29;;;;;;;12.20;9.80;;;;;;;8.94;62.88;98768.11;240190;1196;23118;-73
2021/04/02 10:27:32;;;;;;;13.07;9.93;;;;;;;8.90;62.91;98762.51;240374;1196;23109;-71
2021/04/02 10:32:35;;;;;;;13.25;9.30;;;;;;;9.03;61.10;98750.39;240774;1200;23105;-72
2021/04/02 10:37:38;;;;;;;10.40;9.30;;;;;;;8.90;61.43;98748.36;240094;1200;23263;-71
2021/04/02 10:42:41;;;;;;;10.40;8.93;;;;;;;8.67;60.97;98758.63;239330;1197;23370;-71
2021/04/02 10:47:44;;;;;;;11.77;9.87;;;;;;;8.67;61.85;98747.16;240080;1198;23233;-71
2021/04/02 10:52:57;;;;;;;13.07;9.70;;;;;;;8.87;60.67;98748.89;240480;1196;23111;-72
2021/04/02 10:58:00;;;;;;;12.53;10.40;;;;;;;8.98;59.62;98736.27;240138;1196;23102;-71
2021/04/02 11:03:03;;;;;;;11.93;9.80;;;;;;;9.07;60.55;98743.41;239975;1196;23877;-71
2021/04/02 11:08:06;;;;;;;14.05;11.10;;;;;;;8.97;59.81;98740.02;240142;1202;23118;-71
2021/04/02 11:13:09;;;;;;;13.00;10.30;;;;;;;9.13;59.82;98725.47;240168;1200;23644;-70
2021/04/02 11:18:12;;;;;;;14.47;9.93;;;;;;;9.23;60.25;98725.41;242919;1196;23107;-71
2021/04/02 11:23:16;;;;;;;12.67;10.17;;;;;;;9.62;60.26;98718.34;242490;1199;23093;-71
2021/04/02 11:28:19;;;;;;;11.13;9.87;;;;;;;9.88;59.10;98713.52;239893;1197;23095;-71
2021/04/02 11:33:21;;;;;;;12.80;10.50;;;;;;;9.93;58.87;98718.83;239967;1196;23137;-73
2021/04/02 11:38:24;;;;;;;12.40;9.90;;;;;;;9.94;58.16;98706.23;240204;1196;23085;-73
2021/04/02 11:43:27;;;;;;;12.10;10.17;;;;;;;9.93;57.45;98709.98;239872;1200;23090;-70
2021/04/02 11:48:30;;;;;;;12.83;9.20;;;;;;;10.09;57.94;98699.91;239976;1196;23237;-71
2021/04/02 11:53:32;;;;;;;10.87;9.47;;;;;;;10.09;56.52;98700.70;239854;1196;23113;-71
2021/04/02 11:58:35;;;;;;;10.97;9.10;;;;;;;10.06;57.03;98695.92;240000;1200;23065;-71
2021/04/02 12:03:38;;;;;;;11.07;8.63;;;;;;;10.13;56.99;98692.91;240020;1197;23553;-71
2021/04/02 12:08:40;;;;;;;10.47;8.67;;;;;;;10.25;56.10;98682.58;240055;1196;23125;-69
2021/04/02 12:13:43;;;;;;;9.30;8.10;;;;;;;10.31;56.33;98682.48;240068;1197;23109;-70
2021/04/02 12:18:46;;;;;;;9.40;8.10;;;;;;;10.33;55.71;98674.98;240173;1196;23416;-71
2021/04/02 12:23:50;;;;;;;7.90;6.77;;;;;;;10.41;55.28;98655.63;238399;1196;23123;-70
2021/04/02 12:28:53;;;;;;;9.63;7.50;;;;;;;10.51;54.71;98660.03;240239;1196;23094;-71
2021/04/02 12:33:55;;;;;;;7.77;6.50;;;;;;;10.58;54.80;98644.39;240019;1197;23211;-71
2021/04/02 12:38:58;;;;;;;6.50;5.50;;;;;;;10.63;52.36;98641.61;239996;1197;23900;-70
2021/04/02 12:44:01;;;;;;;6.70;5.95;;;;;;;10.73;54.07;98641.47;240333;1196;23248;-71
2021/04/02 12:49:04;;;;;;;9.30;5.80;;;;;;;10.75;52.72;98622.42;239561;1196;23133;-71
2021/04/02 12:54:09;;;;;;;6.40;5.67;;;;;;;10.79;52.64;98620.75;239418;1197;23102;-70
2021/04/02 12:59:12;;;;;;;6.67;5.97;;;;;;;10.73;52.36;98613.86;239384;1202;23112;-71
2021/04/02 13:04:14;;;;;;;7.07;5.87;;;;;;;10.71;53.33;98606.13;239617;1197;23212;-71
2021/04/02 13:09:17;;;;;;;7.20;6.10;;;;;;;10.62;51.81;98605.22;239462;1197;23109;-71
2021/04/02 13:14:20;;;;;;;9.23;6.17;;;;;;;10.59;51.68;98595.06;239550;1196;23138;-71
2021/04/02 13:19:22;;;;;;;6.07;5.47;;;;;;;10.59;51.88;98595.06;239621;1197;23108;-71
2021/04/02 13:24:25;;;;;;;6.63;5.43;;;;;;;10.62;51.31;98589.14;239254;1199;23092;-71
2021/04/02 13:29:27;;;;;;;6.95;5.80;;;;;;;10.72;50.78;98577.47;239326;1196;23127;-71
2021/04/02 13:34:30;;;;;;;6.75;5.35;;;;;;;10.90;51.09;98581.19;239649;1196;23119;-71
2021/04/02 13:39:32;;;;;;;6.30;5.25;;;;;;;11.00;50.80;98583.67;239531;1196;23109;-71
2021/04/02 13:44:35;;;;;;;8.47;5.50;;;;;;;10.97;49.82;98581.59;239738;1200;23160;-71
2021/04/02 13:49:37;;;;;;;6.53;5.80;;;;;;;10.82;50.05;98574.60;239428;1200;23241;-71
2021/04/02 13:54:40;;;;;;;5.50;4.90;;;;;;;10.79;49.87;98559.91;239504;1196;23105;-70
2021/04/02 13:59:43;;;;;;;6.93;5.30;;;;;;;10.78;50.05;98558.31;240051;1202;23121;-71
2021/04/02 14:04:46;;;;;;;6.30;5.70;;;;;;;10.80;50.45;98550.00;242936;1202;23109;-69
2021/04/02 14:09:49;;;;;;;5.63;4.97;;;;;;;10.82;49.63;98547.02;238870;1199;23561;-70
2021/04/02 14:14:52;;;;;;;6.35;5.10;;;;;;;10.75;49.00;98545.51;238609;1199;23105;-71
2021/04/02 14:19:55;;;;;;;6.37;5.43;;;;;;;10.70;48.98;98540.26;238724;1202;23105;-71
2021/04/02 14:24:58;;;;;;;5.60;5.00;;;;;;;10.66;48.98;98535.77;238735;1199;23208;-71
2021/04/02 14:30:03;;;;;;;5.60;4.85;;;;;;;10.64;49.03;98533.38;239272;1196;23109;-71
2021/04/02 14:35:06;;;;;;;5.37;4.43;;;;;;;10.68;49.32;98520.20;239318;1202;23241;-71
2021/04/02 14:40:15;;;;;;;6.15;5.10;;;;;;;10.67;49.34;98521.28;238817;1197;23102;-71
2021/04/02 14:45:18;;;;;;;7.53;5.33;;;;;;;10.60;48.93;98532.38;239478;1197;24539;-70
2021/04/02 14:50:25;;;;;;;5.73;5.07;;;;;;;10.55;48.54;98521.77;238758;1198;23135;-71
2021/04/02 14:55:27;;;;;;;5.83;5.20;;;;;;;10.45;48.36;98514.70;239332;1198;23135;-71
2021/04/02 15:00:31;;;;;;;5.97;5.10;;;;;;;10.40;48.83;98502.17;239279;1200;23211;-70
2021/04/02 15:05:33;;;;;;;6.30;5.70;;;;;;;10.39;49.21;98507.83;239056;1200;24777;-72
2021/04/02 15:10:38;;;;;;;5.83;5.23;;;;;;;10.42;49.40;98512.59;238678;1202;23276;-70
2021/04/02 15:15:40;;;;;;;5.45;4.95;;;;;;;10.38;49.03;98503.55;239224;1196;23115;-69
2021/04/02 15:20:42;;;;;;;7.23;5.97;;;;;;;10.31;48.94;98500.43;239099;1200;23338;-72
2021/04/02 15:25:45;;;;;;;5.17;4.60;;;;;;;10.30;48.76;98499.64;239225;1199;23109;-71
2021/04/02 15:30:48;;;;;;;5.60;5.00;;;;;;;10.22;48.01;98497.63;239270;1200;23112;-70
2021/04/02 15:35:50;;;;;;;4.57;4.00;;;;;;;10.13;47.78;98492.16;238827;1202;26114;-71
2021/04/02 15:40:53;;;;;;;7.40;5.40;;;;;;;10.05;47.63;98493.60;239537;1196;23101;-70
2021/04/02 15:45:56;;;;;;;5.53;4.93;;;;;;;10.03;47.71;98485.08;239049;1201;23109;-69
2021/04/02 15:50:58;;;;;;;6.20;5.60;;;;;;;9.98;47.90;98487.05;238607;1200;23115;-71
2021/04/02 15:56:01;;;;;;;22.35;16.70;;;;;;;9.90;47.87;98488.48;239343;1197;23109;-71
2021/04/02 16:01:03;;;;;;;9.50;7.43;;;;;;;9.82;48.14;98497.16;239206;1196;23108;-71
2021/04/02 16:06:06;;;;;;;6.50;5.50;;;;;;;9.71;48.12;98491.97;239308;1202;23240;-71
2021/04/02 16:11:08;;;;;;;8.45;6.40;;;;;;;9.59;47.99;98488.92;239306;1196;23138;-71
2021/04/02 16:16:11;;;;;;;8.60;6.63;;;;;;;9.45;48.33;98493.40;239059;1196;23131;-71
2021/04/02 16:21:13;;;;;;;7.53;6.73;;;;;;;9.32;49.15;98493.02;239269;1200;23189;-70
2021/04/02 16:26:18;;;;;;;8.50;7.30;;;;;;;9.20;49.11;98496.08;239083;1199;23130;-71
2021/04/02 16:31:21;;;;;;;8.47;7.10;;;;;;;9.07;49.88;98488.77;239011;1199;23133;-70
2021/04/02 16:36:45;;;;;;;9.05;6.75;;;;;;;8.94;50.21;98492.12;239048;1200;23116;-72
2021/04/02 16:41:48;;;;;;;10.20;8.00;;;;;;;8.88;50.21;98486.03;238406;1197;25959;-70
2021/04/02 16:46:51;;;;;;;8.20;7.05;;;;;;;8.72;50.64;98480.86;238314;1201;23126;-70
2021/04/02 16:51:53;;;;;;;8.97;7.10;;;;;;;8.58;50.53;98471.12;238677;1198;23121;-71
2021/04/02 16:56:56;;;;;;;10.00;7.00;;;;;;;8.41;51.03;98485.69;239312;1200;23125;-71
2021/04/02 17:01:58;;;;;;;9.93;8.13;;;;;;;8.26;51.10;98478.59;238885;1200;23115;-70
2021/04/02 17:07:01;;;;;;;9.20;7.53;;;;;;;8.11;52.22;98471.50;238567;1202;23081;-71
2021/04/02 17:12:04;;;;;;;10.00;8.00;;;;;;;7.94;52.40;98474.57;238644;1202;23125;-69
2021/04/02 17:17:07;;;;;;;12.07;8.87;;;;;;;7.76;52.26;98476.02;238495;1197;27194;-69
2021/04/02 17:22:10;;;;;;;11.95;8.50;;;;;;;7.59;53.40;98484.39;238059;1200;23121;-70
2021/04/02 17:27:13;;;;;;;11.33;8.67;;;;;;;7.44;54.11;98469.27;239671;1203;23111;-71
2021/04/02 17:32:15;;;;;;;13.27;9.70;;;;;;;7.29;54.51;98464.84;237867;1202;23128;-70
2021/04/02 17:37:18;;;;;;;12.15;9.50;;;;;;;7.11;54.65;98465.46;238832;1200;23130;-70
2021/04/02 17:42:21;;;;;;;11.00;8.90;;;;;;;6.92;55.50;98466.04;239900;1197;23198;-71
2021/04/02 17:47:25;;;;;;;11.70;8.40;;;;;;;6.77;55.60;98460.77;239787;1203;23126;-70
2021/04/02 17:52:28;;;;;;;11.60;9.00;;;;;;;6.63;56.11;98465.86;239973;1197;23322;-69
2021/04/02 17:57:31;;;;;;;14.63;9.57;;;;;;;6.51;56.74;98468.81;238013;1203;23147;-70
2021/04/02 18:02:34;;;;;;;13.37;9.53;;;;;;;6.40;56.89;98467.23;238276;1200;23112;-70
2021/04/02 18:07:38;;;;;;;17.17;10.23;;;;;;;6.30;57.62;98473.37;238476;1200;23620;-69
2021/04/02 18:12:41;;;;;;;20.33;12.80;;;;;;;6.19;58.04;98477.89;238526;1199;27484;-70
2021/04/02 18:17:44;;;;;;;22.97;14.00;;;;;;;6.15;58.55;98482.14;238119;1196;23108;-70
2021/04/02 18:22:46;;;;;;;22.25;13.80;;;;;;;6.12;58.55;98482.68;237992;1201;23122;-71
2021/04/02 18:27:49;;;;;;;25.60;15.50;;;;;;;6.05;58.74;98490.91;238165;1200;23109;-71
2021/04/02 18:32:52;;;;;;;24.23;15.30;;;;;;;5.93;58.95;98488.50;239072;1199;23113;-71
2021/04/02 18:37:55;;;;;;;26.17;15.43;;;;;;;5.85;59.58;98477.56;238198;1201;26019;-70
2021/04/02 18:42:57;;;;;;;21.40;14.03;;;;;;;5.75;59.83;98479.17;238118;1202;23121;-70
2021/04/02 18:48:01;;;;;;;19.20;11.80;;;;;;;5.65;60.05;98482.60;238223;1202;23122;-70
2021/04/02 18:53:04;;;;;;;36.73;19.77;;;;;;;5.58;60.80;98484.72;238340;1196;23127;-70
2021/04/02 18:58:07;;;;;;;42.50;20.90;;;;;;;5.49;60.97;98480.97;238094;1202;23192;-69
2021/04/02 19:03:09;;;;;;;46.87;23.10;;;;;;;5.43;60.98;98477.50;238718;1202;23105;-70
2021/04/02 19:08:12;;;;;;;45.30;24.45;;;;;;;5.44;61.70;98478.28;239490;1200;23103;-71
2021/04/02 19:13:15;;;;;;;42.23;22.67;;;;;;;5.46;62.09;98470.87;238251;1199;23125;-70
2021/04/02 19:18:18;;;;;;;40.87;20.70;;;;;;;5.47;62.20;98472.44;238345;1201;23119;-70
2021/04/02 19:23:22;;;;;;;38.93;20.40;;;;;;;5.41;61.94;98454.91;238255;1199;23118;-71
2021/04/02 19:28:25;;;;;;;37.67;20.37;;;;;;;5.31;62.20;98467.09;238156;1202;26230;-70
2021/04/02 19:33:27;;;;;;;37.33;19.43;;;;;;;5.23;62.01;98461.48;238717;1199;23190;-70
2021/04/02 19:38:30;;;;;;;33.57;18.37;;;;;;;5.14;62.01;98458.55;239537;1196;24571;-70
2021/04/02 19:43:35;;;;;;;33.50;18.67;;;;;;;5.08;62.20;98451.63;239602;1197;23131;-70
2021/04/02 19:48:38;;;;;;;38.30;19.17;;;;;;;4.99;62.52;98451.31;239805;1198;23169;-70
2021/04/02 19:53:41;;;;;;;31.90;18.00;;;;;;;4.88;62.71;98447.83;239386;1197;23110;-70
2021/04/02 19:58:44;;;;;;;28.55;15.90;;;;;;;4.75;62.61;98445.64;238543;1196;23133;-70
2021/04/02 20:03:47;;;;;;;26.45;15.80;;;;;;;4.68;63.05;98455.69;238429;1196;23391;-71
2021/04/02 20:08:50;;;;;;;33.43;17.30;;;;;;;4.62;63.41;98450.34;239728;1196;23108;-70
2021/04/02 20:13:55;;;;;;;41.13;19.40;;;;;;;4.60;63.30;98447.16;239474;1196;26214;-71
2021/04/02 20:18:57;;;;;;;36.70;20.50;;;;;;;4.61;63.99;98434.69;238419;1202;23135;-70
2021/04/02 20:24:00;;;;;;;34.87;18.77;;;;;;;4.57;63.96;98439.69;238274;1200;23153;-72
2021/04/02 20:29:02;;;;;;;28.90;15.93;;;;;;;4.52;63.62;98430.91;237865;1201;26208;-70
2021/04/02 20:34:07;;;;;;;25.70;15.70;;;;;;;4.44;63.90;98426.91;239779;1200;23255;-70
2021/04/02 20:39:13;;;;;;;29.90;16.00;;;;;;;4.39;64.28;98432.98;238070;1202;23109;-71
2021/04/02 20:44:17;;;;;;;28.70;15.90;;;;;;;4.26;64.39;98422.81;239238;1202;23128;-70
2021/04/02 20:49:20;;;;;;;30.27;16.37;;;;;;;4.33;64.49;98425.25;239720;1196;23108;-70
2021/04/02 20:54:26;;;;;;;30.63;16.47;;;;;;;4.28;64.44;98428.64;239613;1200;23105;-70
2021/04/02 20:59:30;;;;;;;28.10;15.00;;;;;;;4.22;64.90;98433.11;238143;1203;26259;-70
2021/04/02 21:04:36;;;;;;;28.70;14.50;;;;;;;4.17;64.95;98446.36;239793;1196;23186;-70
2021/04/02 21:09:39;;;;;;;28.53;15.73;;;;;;;4.17;65.20;98450.84;239955;1196;23105;-70
2021/04/02 21:14:41;;;;;;;29.40;15.43;;;;;;;4.23;65.42;98457.80;239733;1200;23092;-70
2021/04/02 21:19:44;;;;;;;26.80;15.20;;;;;;;4.23;65.75;98453.28;239829;1197;23128;-70
2021/04/02 21:24:48;;;;;;;27.60;15.50;;;;;;;4.23;64.97;98455.14;239622;1200;23231;-70
2021/04/02 21:29:51;;;;;;;23.43;13.53;;;;;;;4.16;65.63;98444.75;239586;1196;23101;-70
2021/04/02 21:34:53;;;;;;;24.95;12.45;;;;;;;4.14;65.68;98435.45;239844;1200;23118;-70
2021/04/02 21:39:56;;;;;;;21.60;10.40;;;;;;;4.16;65.70;98438.66;239791;1197;23125;-70
2021/04/02 21:44:58;;;;;;;20.43;12.30;;;;;;;4.21;65.39;98438.67;239638;1202;23134;-70
2021/04/02 21:50:07;;;;;;;20.77;11.27;;;;;;;4.24;65.35;98446.93;239775;1195;23239;-70
2021/04/02 21:55:11;;;;;;;19.07;11.07;;;;;;;4.27;65.96;98438.46;239587;1199;23105;-70
2021/04/02 22:00:21;;;;;;;20.50;11.50;;;;;;;4.28;65.73;98442.72;239683;1197;26026;-71
2021/04/02 22:05:27;;;;;;;24.30;12.10;;;;;;;4.31;65.61;98443.25;239524;1200;23112;-69
2021/04/02 22:10:30;;;;;;;24.77;13.27;;;;;;;4.39;65.66;98440.13;239647;1197;23135;-70
2021/04/02 22:15:33;;;;;;;23.53;12.43;;;;;;;4.47;65.98;98449.47;239787;1196;23192;-70
2021/04/02 22:20:37;;;;;;;21.17;12.57;;;;;;;4.54;66.15;98445.52;239881;1200;23198;-69
2021/04/02 22:25:53;;;;;;;22.05;12.15;;;;;;;4.60;66.33;98446.34;238313;1200;23252;-69
2021/04/02 22:31:05;;;;;;;19.80;11.60;;;;;;;4.64;66.25;98436.81;238175;1202;23207;-70
2021/04/02 22:36:08;;;;;;;19.40;11.60;;;;;;;4.68;66.14;98445.07;238095;1200;23221;-70
2021/04/02 22:41:11;;;;;;;20.13;11.90;;;;;;;4.70;66.04;98430.50;238207;1200;23135;-69
2021/04/02 22:46:14;;;;;;;23.30;12.80;;;;;;;4.75;66.19;98430.50;238363;1203;23112;-70
2021/04/02 22:51:18;;;;;;;26.15;15.05;;;;;;;4.78;66.43;98435.31;238195;1202;26217;-70
2021/04/02 22:56:20;;;;;;;27.20;14.10;;;;;;;4.78;66.38;98434.50;238263;1202;23121;-69
2021/04/02 23:01:23;;;;;;;26.20;15.77;;;;;;;4.76;66.30;98439.28;238053;1200;23132;-70
2021/04/02 23:06:26;;;;;;;27.60;15.00;;;;;;;4.69;66.00;98439.50;238241;1202;23243;-70
2021/04/02 23:11:33;;;;;;;28.77;16.00;;;;;;;4.57;65.96;98433.59;238329;1202;23256;-70
2021/04/02 23:16:35;;;;;;;31.40;16.63;;;;;;;4.44;65.86;98414.42;238238;1196;23125;-70
2021/04/02 23:21:38;;;;;;;27.90;15.65;;;;;;;4.34;66.44;98416.21;238150;1203;27466;-70
2021/04/02 23:26:41;;;;;;;33.35;18.65;;;;;;;4.23;66.51;98416.16;238180;1200;23112;-70
2021/04/02 23:31:43;;;;;;;42.30;20.30;;;;;;;4.16;67.33;98415.59;238319;1202;23137;-69
2021/04/02 23:36:46;;;;;;;33.60;17.30;;;;;;;4.08;67.03;98413.41;238481;1199;23141;-69